Pagina principale
METAR-TAF:

METAR-TAF

Aeroporti :

Aeroporto di Padova

Padova, Italia

latitudine: 45-23-45N, longitudine: 11-50-53E, altezza: 13 m

Osservazione

Il bollettino è stato emesso 20 ore e 30 minuti fa, alle 07:00 UTC
Vento 5 kt da nord-ovest, variando fra ovest/nord-ovest e nord
Temperature 0°C
Umidità 100%
Pressione 999 hPa
Visibilità: 1600 m
Nuvoloso ad un'altezza di 800 ft
Nuvoloso ad un'altezza di 1500 ft
neve

METAR: LIPU 230700Z 32005KT 290V360 1600 SN BKN008 BKN015 00/00 Q0999

Ora: 04:30 (03:30 UTC)


TAF: mancante

Osservazioni e previsioni meteorologiche di più di 4000 aeroporti (messaggi METAR e TAF).

Le stazioni disponibili sono rappresentate dai dischi gialli e rossi sulla carta.

Puntare il mouse per vedere il nome della stazione.

Clicca sopra per visualizzare le osservazioni e previsioni meteorologiche.

Per cambiare la mappa : fare clic sui pulsanti verdi con una croce nera per ingrandire, il pulsante verde con un trattino per diminuire, o sulla freccia verde per le mappe adiacenti.


METAR-TAF: